sensor_id;sensor_type;location;lat;lon;timestamp;temperature;humidity
26278;DHT22;14000;52.056;8.510;2023-02-15T00:01:27;0.80;99.90
26278;DHT22;14000;52.056;8.510;2023-02-15T00:03:53;0.80;99.90
26278;DHT22;14000;52.056;8.510;2023-02-15T00:06:18;0.90;99.90
26278;DHT22;14000;52.056;8.510;2023-02-15T00:08:44;0.90;99.90
26278;DHT22;14000;52.056;8.510;2023-02-15T00:11:15;0.90;99.90
26278;DHT22;14000;52.056;8.510;2023-02-15T00:13:41;0.90;99.90
26278;DHT22;14000;52.056;8.510;2023-02-15T00:16:09;1.00;99.90
26278;DHT22;14000;52.056;8.510;2023-02-15T00:18:35;1.00;99.90
26278;DHT22;14000;52.056;8.510;2023-02-15T00:21:10;1.00;99.90
26278;DHT22;14000;52.056;8.510;2023-02-15T00:23:36;1.00;99.90
26278;DHT22;14000;52.056;8.510;2023-02-15T00:26:10;1.00;99.90
26278;DHT22;14000;52.056;8.510;2023-02-15T00:28:36;0.90;99.90
26278;DHT22;14000;52.056;8.510;2023-02-15T00:31:10;0.90;99.90
26278;DHT22;14000;52.056;8.510;2023-02-15T00:33:36;0.90;99.90
26278;DHT22;14000;52.056;8.510;2023-02-15T00:36:03;0.90;99.90
26278;DHT22;14000;52.056;8.510;2023-02-15T00:38:29;0.90;99.90
26278;DHT22;14000;52.056;8.510;2023-02-15T00:40:56;0.90;99.90
26278;DHT22;14000;52.056;8.510;2023-02-15T00:43:22;0.80;99.90
26278;DHT22;14000;52.056;8.510;2023-02-15T00:45:48;0.80;99.90
26278;DHT22;14000;52.056;8.510;2023-02-15T00:48:14;0.80;99.90
26278;DHT22;14000;52.056;8.510;2023-02-15T00:50:39;0.80;99.90
26278;DHT22;14000;52.056;8.510;2023-02-15T00:53:05;0.80;99.90
26278;DHT22;14000;52.056;8.510;2023-02-15T00:55:31;0.70;99.90
26278;DHT22;14000;52.056;8.510;2023-02-15T00:57:56;0.70;99.90
26278;DHT22;14000;52.056;8.510;2023-02-15T01:00:22;0.60;99.90
26278;DHT22;14000;52.056;8.510;2023-02-15T01:02:47;0.60;99.90
26278;DHT22;14000;52.056;8.510;2023-02-15T01:05:13;0.60;99.90
26278;DHT22;14000;52.056;8.510;2023-02-15T01:07:39;0.60;99.90
26278;DHT22;14000;52.056;8.510;2023-02-15T01:10:08;0.60;99.90
26278;DHT22;14000;52.056;8.510;2023-02-15T01:12:34;0.50;99.90
26278;DHT22;14000;52.056;8.510;2023-02-15T01:14:59;0.50;99.90
26278;DHT22;14000;52.056;8.510;2023-02-15T01:17:25;0.50;99.90
26278;DHT22;14000;52.056;8.510;2023-02-15T01:19:51;0.50;99.90
26278;DHT22;14000;52.056;8.510;2023-02-15T01:22:17;0.50;99.90
26278;DHT22;14000;52.056;8.510;2023-02-15T01:24:42;0.50;99.90
26278;DHT22;14000;52.056;8.510;2023-02-15T01:27:08;0.50;99.90
26278;DHT22;14000;52.056;8.510;2023-02-15T01:29:34;0.40;99.90
26278;DHT22;14000;52.056;8.510;2023-02-15T01:31:59;0.40;99.90
26278;DHT22;14000;52.056;8.510;2023-02-15T01:34:25;0.50;99.90
26278;DHT22;14000;52.056;8.510;2023-02-15T01:36:50;0.50;99.90
26278;DHT22;14000;52.056;8.510;2023-02-15T01:39:16;0.50;99.90
26278;DHT22;14000;52.056;8.510;2023-02-15T01:41:41;0.40;99.90
26278;DHT22;14000;52.056;8.510;2023-02-15T01:47:13;0.40;99.90
26278;DHT22;14000;52.056;8.510;2023-02-15T01:49:42;0.40;99.90
26278;DHT22;14000;52.056;8.510;2023-02-15T01:52:10;0.40;99.90
26278;DHT22;14000;52.056;8.510;2023-02-15T01:54:38;0.40;99.90
26278;DHT22;14000;52.056;8.510;2023-02-15T01:57:18;0.50;99.90
26278;DHT22;14000;52.056;8.510;2023-02-15T01:59:47;0.40;99.90
26278;DHT22;14000;52.056;8.510;2023-02-15T02:02:15;0.50;99.90
26278;DHT22;14000;52.056;8.510;2023-02-15T02:04:49;0.50;99.90
26278;DHT22;14000;52.056;8.510;2023-02-15T02:07:18;0.50;99.90
26278;DHT22;14000;52.056;8.510;2023-02-15T02:09:45;0.50;99.90
26278;DHT22;14000;52.056;8.510;2023-02-15T02:12:11;0.50;99.90
26278;DHT22;14000;52.056;8.510;2023-02-15T02:14:38;0.50;99.90
26278;DHT22;14000;52.056;8.510;2023-02-15T02:18:08;0.50;99.90
26278;DHT22;14000;52.056;8.510;2023-02-15T02:38:24;0.40;99.90
26278;DHT22;14000;52.056;8.510;2023-02-15T02:46:46;0.40;99.90
26278;DHT22;14000;52.056;8.510;2023-02-15T02:49:06;0.40;99.90
26278;DHT22;14000;52.056;8.510;2023-02-15T02:51:32;0.30;99.90
26278;DHT22;14000;52.056;8.510;2023-02-15T02:54:00;0.30;99.90
26278;DHT22;14000;52.056;8.510;2023-02-15T02:59:18;0.30;99.90
26278;DHT22;14000;52.056;8.510;2023-02-15T03:01:53;0.30;99.90
26278;DHT22;14000;52.056;8.510;2023-02-15T03:04:26;0.20;99.90
26278;DHT22;14000;52.056;8.510;2023-02-15T03:07:02;0.20;99.90
26278;DHT22;14000;52.056;8.510;2023-02-15T03:09:37;0.20;99.90
26278;DHT22;14000;52.056;8.510;2023-02-15T03:12:12;0.20;99.90
26278;DHT22;14000;52.056;8.510;2023-02-15T03:14:40;0.20;99.90
26278;DHT22;14000;52.056;8.510;2023-02-15T03:17:09;0.20;99.90
26278;DHT22;14000;52.056;8.510;2023-02-15T03:19:37;0.20;99.90
26278;DHT22;14000;52.056;8.510;2023-02-15T03:22:08;0.20;99.90
26278;DHT22;14000;52.056;8.510;2023-02-15T03:24:46;0.20;99.90
26278;DHT22;14000;52.056;8.510;2023-02-15T03:27:17;0.30;99.90
26278;DHT22;14000;52.056;8.510;2023-02-15T03:29:50;0.20;99.90
26278;DHT22;14000;52.056;8.510;2023-02-15T03:32:17;0.30;99.90
26278;DHT22;14000;52.056;8.510;2023-02-15T03:34:44;0.30;99.90
26278;DHT22;14000;52.056;8.510;2023-02-15T03:37:18;0.20;99.90
26278;DHT22;14000;52.056;8.510;2023-02-15T03:39:56;0.20;99.90
26278;DHT22;14000;52.056;8.510;2023-02-15T03:42:45;0.20;99.90
26278;DHT22;14000;52.056;8.510;2023-02-15T03:45:17;0.20;99.90
26278;DHT22;14000;52.056;8.510;2023-02-15T03:47:49;0.20;99.90
26278;DHT22;14000;52.056;8.510;2023-02-15T03:50:26;0.20;99.90
26278;DHT22;14000;52.056;8.510;2023-02-15T03:53:15;0.20;99.90
26278;DHT22;14000;52.056;8.510;2023-02-15T03:55:42;0.10;99.90
26278;DHT22;14000;52.056;8.510;2023-02-15T03:58:11;0.10;99.90
26278;DHT22;14000;52.056;8.510;2023-02-15T04:01:03;0.10;99.90
26278;DHT22;14000;52.056;8.510;2023-02-15T04:04:18;0.10;99.90
26278;DHT22;14000;52.056;8.510;2023-02-15T04:06:44;0.10;99.90
26278;DHT22;14000;52.056;8.510;2023-02-15T04:09:10;0.10;99.90
26278;DHT22;14000;52.056;8.510;2023-02-15T04:11:54;0.10;99.90
26278;DHT22;14000;52.056;8.510;2023-02-15T04:14:19;0.10;99.90
26278;DHT22;14000;52.056;8.510;2023-02-15T04:17:07;0.00;99.90
26278;DHT22;14000;52.056;8.510;2023-02-15T04:19:33;0.00;99.90
26278;DHT22;14000;52.056;8.510;2023-02-15T04:22:18;0.00;99.90
26278;DHT22;14000;52.056;8.510;2023-02-15T04:25:02;0.00;99.90
26278;DHT22;14000;52.056;8.510;2023-02-15T04:27:47;0.00;99.90
26278;DHT22;14000;52.056;8.510;2023-02-15T04:30:14;0.00;99.90
26278;DHT22;14000;52.056;8.510;2023-02-15T04:32:40;0.00;99.90
26278;DHT22;14000;52.056;8.510;2023-02-15T04:35:06;0.00;99.90
26278;DHT22;14000;52.056;8.510;2023-02-15T04:37:32;-0.10;99.90
26278;DHT22;14000;52.056;8.510;2023-02-15T04:39:58;0.00;99.90
26278;DHT22;14000;52.056;8.510;2023-02-15T04:42:24;-0.10;99.90
26278;DHT22;14000;52.056;8.510;2023-02-15T04:44:51;-0.10;99.90
26278;DHT22;14000;52.056;8.510;2023-02-15T04:47:16;-0.10;99.90
26278;DHT22;14000;52.056;8.510;2023-02-15T04:49:42;-0.10;99.90
26278;DHT22;14000;52.056;8.510;2023-02-15T04:52:08;-0.10;99.90
26278;DHT22;14000;52.056;8.510;2023-02-15T04:54:33;-0.10;99.90
26278;DHT22;14000;52.056;8.510;2023-02-15T04:56:59;-0.10;99.90
26278;DHT22;14000;52.056;8.510;2023-02-15T04:59:24;-0.10;99.90
26278;DHT22;14000;52.056;8.510;2023-02-15T05:01:50;-0.10;99.90
26278;DHT22;14000;52.056;8.510;2023-02-15T05:04:15;-0.20;99.90
26278;DHT22;14000;52.056;8.510;2023-02-15T05:06:41;-0.20;99.90
26278;DHT22;14000;52.056;8.510;2023-02-15T05:09:07;-0.10;99.90
26278;DHT22;14000;52.056;8.510;2023-02-15T05:11:32;-0.10;99.90
26278;DHT22;14000;52.056;8.510;2023-02-15T05:13:58;-0.10;99.90
26278;DHT22;14000;52.056;8.510;2023-02-15T05:16:24;-0.10;99.90
26278;DHT22;14000;52.056;8.510;2023-02-15T05:18:50;-0.10;99.90
26278;DHT22;14000;52.056;8.510;2023-02-15T05:21:16;-0.10;99.90
26278;DHT22;14000;52.056;8.510;2023-02-15T05:23:42;-0.20;99.90
26278;DHT22;14000;52.056;8.510;2023-02-15T05:26:22;-0.20;99.90
26278;DHT22;14000;52.056;8.510;2023-02-15T05:29:08;-0.20;99.90
26278;DHT22;14000;52.056;8.510;2023-02-15T05:31:34;-0.20;99.90
26278;DHT22;14000;52.056;8.510;2023-02-15T05:34:00;-0.30;99.90
26278;DHT22;14000;52.056;8.510;2023-02-15T05:36:26;-0.30;99.90
26278;DHT22;14000;52.056;8.510;2023-02-15T05:38:52;-0.30;99.90
26278;DHT22;14000;52.056;8.510;2023-02-15T05:41:17;-0.30;99.90
26278;DHT22;14000;52.056;8.510;2023-02-15T05:43:43;-0.30;99.90
26278;DHT22;14000;52.056;8.510;2023-02-15T05:46:09;-0.30;99.90
26278;DHT22;14000;52.056;8.510;2023-02-15T05:48:35;-0.30;99.90
26278;DHT22;14000;52.056;8.510;2023-02-15T05:51:06;-0.30;99.90
26278;DHT22;14000;52.056;8.510;2023-02-15T05:53:34;-0.30;99.90
26278;DHT22;14000;52.056;8.510;2023-02-15T05:56:01;-0.30;99.90
26278;DHT22;14000;52.056;8.510;2023-02-15T05:58:39;-0.30;99.90
26278;DHT22;14000;52.056;8.510;2023-02-15T06:01:15;-0.30;99.90
26278;DHT22;14000;52.056;8.510;2023-02-15T06:03:42;-0.40;99.90
26278;DHT22;14000;52.056;8.510;2023-02-15T06:06:08;-0.40;99.90
26278;DHT22;14000;52.056;8.510;2023-02-15T06:08:35;-0.40;99.90
26278;DHT22;14000;52.056;8.510;2023-02-15T06:11:01;-0.40;99.90
26278;DHT22;14000;52.056;8.510;2023-02-15T06:13:27;-0.40;99.90
26278;DHT22;14000;52.056;8.510;2023-02-15T06:15:53;-0.40;99.90
26278;DHT22;14000;52.056;8.510;2023-02-15T06:18:19;-0.40;99.90
26278;DHT22;14000;52.056;8.510;2023-02-15T06:20:48;-0.40;99.90
26278;DHT22;14000;52.056;8.510;2023-02-15T06:23:14;-0.30;99.90
26278;DHT22;14000;52.056;8.510;2023-02-15T06:25:40;-0.30;99.90
26278;DHT22;14000;52.056;8.510;2023-02-15T06:28:06;-0.30;99.90
26278;DHT22;14000;52.056;8.510;2023-02-15T06:30:32;-0.30;99.90
26278;DHT22;14000;52.056;8.510;2023-02-15T06:32:57;-0.30;99.90
26278;DHT22;14000;52.056;8.510;2023-02-15T06:35:23;-0.20;99.90
26278;DHT22;14000;52.056;8.510;2023-02-15T06:37:49;-0.20;99.90
26278;DHT22;14000;52.056;8.510;2023-02-15T06:40:15;-0.20;99.90
26278;DHT22;14000;52.056;8.510;2023-02-15T06:42:43;-0.20;99.90
26278;DHT22;14000;52.056;8.510;2023-02-15T06:45:10;-0.10;99.90
26278;DHT22;14000;52.056;8.510;2023-02-15T06:47:36;-0.10;99.90
26278;DHT22;14000;52.056;8.510;2023-02-15T06:50:03;-0.10;99.90
26278;DHT22;14000;52.056;8.510;2023-02-15T06:52:29;0.00;99.90
26278;DHT22;14000;52.056;8.510;2023-02-15T06:54:54;0.00;99.90
26278;DHT22;14000;52.056;8.510;2023-02-15T06:57:20;0.00;99.90
26278;DHT22;14000;52.056;8.510;2023-02-15T06:59:46;0.00;99.90
26278;DHT22;14000;52.056;8.510;2023-02-15T07:02:12;0.00;99.90
26278;DHT22;14000;52.056;8.510;2023-02-15T07:04:38;0.00;99.90
26278;DHT22;14000;52.056;8.510;2023-02-15T07:07:03;0.10;99.90
26278;DHT22;14000;52.056;8.510;2023-02-15T07:09:29;0.10;99.90
26278;DHT22;14000;52.056;8.510;2023-02-15T07:11:55;0.10;99.90
26278;DHT22;14000;52.056;8.510;2023-02-15T07:14:39;0.10;99.90
26278;DHT22;14000;52.056;8.510;2023-02-15T07:17:06;0.10;99.90
26278;DHT22;14000;52.056;8.510;2023-02-15T07:19:31;0.20;99.90
26278;DHT22;14000;52.056;8.510;2023-02-15T07:21:57;0.20;99.90
26278;DHT22;14000;52.056;8.510;2023-02-15T07:24:23;0.20;99.90
26278;DHT22;14000;52.056;8.510;2023-02-15T07:26:48;0.20;99.90
26278;DHT22;14000;52.056;8.510;2023-02-15T07:29:14;0.20;99.90
26278;DHT22;14000;52.056;8.510;2023-02-15T07:31:40;0.30;99.90
26278;DHT22;14000;52.056;8.510;2023-02-15T07:34:08;0.30;99.90
26278;DHT22;14000;52.056;8.510;2023-02-15T07:36:34;0.30;99.90
26278;DHT22;14000;52.056;8.510;2023-02-15T07:38:59;0.30;99.90
26278;DHT22;14000;52.056;8.510;2023-02-15T07:41:25;0.40;99.90
26278;DHT22;14000;52.056;8.510;2023-02-15T07:43:50;0.40;99.90
26278;DHT22;14000;52.056;8.510;2023-02-15T07:46:17;0.40;99.90
26278;DHT22;14000;52.056;8.510;2023-02-15T07:48:43;0.50;99.90
26278;DHT22;14000;52.056;8.510;2023-02-15T07:51:10;0.50;99.90
26278;DHT22;14000;52.056;8.510;2023-02-15T07:53:37;0.50;99.90
26278;DHT22;14000;52.056;8.510;2023-02-15T07:56:06;0.50;99.90
26278;DHT22;14000;52.056;8.510;2023-02-15T07:58:32;0.50;99.90
26278;DHT22;14000;52.056;8.510;2023-02-15T08:01:24;0.60;99.90
26278;DHT22;14000;52.056;8.510;2023-02-15T08:03:51;0.60;99.90
26278;DHT22;14000;52.056;8.510;2023-02-15T08:06:17;0.70;99.90
26278;DHT22;14000;52.056;8.510;2023-02-15T08:08:43;0.70;99.90
26278;DHT22;14000;52.056;8.510;2023-02-15T08:14:15;0.70;99.90
26278;DHT22;14000;52.056;8.510;2023-02-15T08:16:54;0.70;99.90
26278;DHT22;14000;52.056;8.510;2023-02-15T08:19:27;0.80;99.90
26278;DHT22;14000;52.056;8.510;2023-02-15T08:22:04;0.80;99.90
26278;DHT22;14000;52.056;8.510;2023-02-15T08:24:35;0.80;99.90
26278;DHT22;14000;52.056;8.510;2023-02-15T08:27:06;0.90;99.90
26278;DHT22;14000;52.056;8.510;2023-02-15T08:29:32;0.90;99.90
26278;DHT22;14000;52.056;8.510;2023-02-15T08:32:01;1.00;99.90
26278;DHT22;14000;52.056;8.510;2023-02-15T08:34:29;1.00;99.90
26278;DHT22;14000;52.056;8.510;2023-02-15T08:36:56;1.10;99.90
26278;DHT22;14000;52.056;8.510;2023-02-15T08:39:22;1.10;99.90
26278;DHT22;14000;52.056;8.510;2023-02-15T08:41:48;1.10;99.90
26278;DHT22;14000;52.056;8.510;2023-02-15T08:44:15;1.20;99.90
26278;DHT22;14000;52.056;8.510;2023-02-15T08:46:43;1.20;99.90
26278;DHT22;14000;52.056;8.510;2023-02-15T08:49:12;1.30;99.90
26278;DHT22;14000;52.056;8.510;2023-02-15T08:51:39;1.30;99.90
26278;DHT22;14000;52.056;8.510;2023-02-15T08:54:07;1.40;99.90
26278;DHT22;14000;52.056;8.510;2023-02-15T08:56:36;1.40;99.90
26278;DHT22;14000;52.056;8.510;2023-02-15T08:59:03;1.50;99.90
26278;DHT22;14000;52.056;8.510;2023-02-15T09:01:30;1.50;99.90
26278;DHT22;14000;52.056;8.510;2023-02-15T09:03:59;1.60;99.90
26278;DHT22;14000;52.056;8.510;2023-02-15T09:06:25;1.60;99.90
26278;DHT22;14000;52.056;8.510;2023-02-15T09:08:52;1.70;99.90
26278;DHT22;14000;52.056;8.510;2023-02-15T09:11:23;1.80;99.90
26278;DHT22;14000;52.056;8.510;2023-02-15T09:14:12;1.80;99.90
26278;DHT22;14000;52.056;8.510;2023-02-15T09:16:39;2.00;99.90
26278;DHT22;14000;52.056;8.510;2023-02-15T09:19:06;2.10;99.90
26278;DHT22;14000;52.056;8.510;2023-02-15T09:21:35;2.20;99.90
26278;DHT22;14000;52.056;8.510;2023-02-15T09:24:04;2.30;99.90
26278;DHT22;14000;52.056;8.510;2023-02-15T09:26:31;2.30;99.90
26278;DHT22;14000;52.056;8.510;2023-02-15T09:28:59;2.40;99.90
26278;DHT22;14000;52.056;8.510;2023-02-15T09:31:41;2.50;99.90
26278;DHT22;14000;52.056;8.510;2023-02-15T09:34:10;2.60;99.90
26278;DHT22;14000;52.056;8.510;2023-02-15T09:36:38;2.70;99.90
26278;DHT22;14000;52.056;8.510;2023-02-15T09:39:13;2.80;99.90
26278;DHT22;14000;52.056;8.510;2023-02-15T09:55:12;3.40;99.90
26278;DHT22;14000;52.056;8.510;2023-02-15T09:57:57;3.50;99.90
26278;DHT22;14000;52.056;8.510;2023-02-15T10:00:49;3.50;99.90
26278;DHT22;14000;52.056;8.510;2023-02-15T10:06:32;3.70;99.90
26278;DHT22;14000;52.056;8.510;2023-02-15T10:20:13;4.30;99.90
26278;DHT22;14000;52.056;8.510;2023-02-15T10:22:57;4.50;99.90
26278;DHT22;14000;52.056;8.510;2023-02-15T10:28:05;4.80;99.90
26278;DHT22;14000;52.056;8.510;2023-02-15T10:30:51;4.90;99.90
26278;DHT22;14000;52.056;8.510;2023-02-15T10:41:46;5.20;99.90
26278;DHT22;14000;52.056;8.510;2023-02-15T10:44:56;5.30;99.90
26278;DHT22;14000;52.056;8.510;2023-02-15T10:50:44;5.70;99.90
26278;DHT22;14000;52.056;8.510;2023-02-15T11:01:45;5.80;99.90
26278;DHT22;14000;52.056;8.510;2023-02-15T11:04:41;6.00;99.90
26278;DHT22;14000;52.056;8.510;2023-02-15T11:07:24;6.20;99.90
26278;DHT22;14000;52.056;8.510;2023-02-15T11:12:44;6.20;99.90
26278;DHT22;14000;52.056;8.510;2023-02-15T11:15:32;6.20;99.90
26278;DHT22;14000;52.056;8.510;2023-02-15T11:20:48;6.60;99.90
26278;DHT22;14000;52.056;8.510;2023-02-15T11:23:15;6.70;99.90
26278;DHT22;14000;52.056;8.510;2023-02-15T11:25:44;6.80;99.90
26278;DHT22;14000;52.056;8.510;2023-02-15T11:31:00;7.00;99.90
26278;DHT22;14000;52.056;8.510;2023-02-15T11:33:36;7.00;99.90
26278;DHT22;14000;52.056;8.510;2023-02-15T11:36:32;7.10;99.90
26278;DHT22;14000;52.056;8.510;2023-02-15T11:39:04;7.30;99.90
26278;DHT22;14000;52.056;8.510;2023-02-15T11:41:37;7.30;99.90
26278;DHT22;14000;52.056;8.510;2023-02-15T11:44:10;7.50;99.90
26278;DHT22;14000;52.056;8.510;2023-02-15T11:46:38;7.90;99.90
26278;DHT22;14000;52.056;8.510;2023-02-15T11:51:50;10.90;99.90
26278;DHT22;14000;52.056;8.510;2023-02-15T11:54:20;13.00;99.90
26278;DHT22;14000;52.056;8.510;2023-02-15T11:56:47;15.20;99.90
26278;DHT22;14000;52.056;8.510;2023-02-15T11:59:18;17.10;99.90
26278;DHT22;14000;52.056;8.510;2023-02-15T12:01:46;18.70;99.90
26278;DHT22;14000;52.056;8.510;2023-02-15T12:04:30;19.20;99.90
26278;DHT22;14000;52.056;8.510;2023-02-15T12:07:17;20.30;99.90
26278;DHT22;14000;52.056;8.510;2023-02-15T12:14:54;21.90;99.90
26278;DHT22;14000;52.056;8.510;2023-02-15T12:17:23;21.40;99.90
26278;DHT22;14000;52.056;8.510;2023-02-15T12:19:51;20.70;99.90
26278;DHT22;14000;52.056;8.510;2023-02-15T12:22:25;19.40;99.90
26278;DHT22;14000;52.056;8.510;2023-02-15T12:24:54;17.80;99.90
26278;DHT22;14000;52.056;8.510;2023-02-15T12:27:40;17.20;99.90
26278;DHT22;14000;52.056;8.510;2023-02-15T12:30:21;16.40;99.90
26278;DHT22;14000;52.056;8.510;2023-02-15T12:32:54;15.50;99.90
26278;DHT22;14000;52.056;8.510;2023-02-15T12:35:28;14.70;99.90
26278;DHT22;14000;52.056;8.510;2023-02-15T12:37:57;14.20;99.90
26278;DHT22;14000;52.056;8.510;2023-02-15T12:40:27;13.30;99.90
26278;DHT22;14000;52.056;8.510;2023-02-15T12:42:53;13.00;99.90
26278;DHT22;14000;52.056;8.510;2023-02-15T12:45:31;12.70;99.90
26278;DHT22;14000;52.056;8.510;2023-02-15T12:50:39;12.60;99.90
26278;DHT22;14000;52.056;8.510;2023-02-15T12:53:18;12.40;99.90
26278;DHT22;14000;52.056;8.510;2023-02-15T12:55:54;12.30;99.90
26278;DHT22;14000;52.056;8.510;2023-02-15T12:58:23;12.00;99.90
26278;DHT22;14000;52.056;8.510;2023-02-15T13:03:35;12.00;99.90
26278;DHT22;14000;52.056;8.510;2023-02-15T13:06:02;12.10;99.90
26278;DHT22;14000;52.056;8.510;2023-02-15T13:08:34;12.20;99.90
26278;DHT22;14000;52.056;8.510;2023-02-15T13:11:10;12.40;99.90
26278;DHT22;14000;52.056;8.510;2023-02-15T13:13:58;12.50;99.90
26278;DHT22;14000;52.056;8.510;2023-02-15T13:16:45;12.60;99.90
26278;DHT22;14000;52.056;8.510;2023-02-15T13:19:15;12.60;99.90
26278;DHT22;14000;52.056;8.510;2023-02-15T13:21:45;12.70;99.90
26278;DHT22;14000;52.056;8.510;2023-02-15T13:24:39;12.70;99.90
26278;DHT22;14000;52.056;8.510;2023-02-15T13:27:13;12.60;99.90
26278;DHT22;14000;52.056;8.510;2023-02-15T13:29:40;12.70;99.90
26278;DHT22;14000;52.056;8.510;2023-02-15T13:34:43;12.90;99.90
26278;DHT22;14000;52.056;8.510;2023-02-15T13:45:39;13.50;99.90
26278;DHT22;14000;52.056;8.510;2023-02-15T13:48:36;13.60;99.90
26278;DHT22;14000;52.056;8.510;2023-02-15T13:57:21;13.80;99.90
26278;DHT22;14000;52.056;8.510;2023-02-15T14:00:34;13.80;99.90
26278;DHT22;14000;52.056;8.510;2023-02-15T14:08:54;14.00;99.90
26278;DHT22;14000;52.056;8.510;2023-02-15T14:19:45;13.80;99.90
26278;DHT22;14000;52.056;8.510;2023-02-15T14:22:32;14.00;99.90
26278;DHT22;14000;52.056;8.510;2023-02-15T14:28:27;14.10;99.90
26278;DHT22;14000;52.056;8.510;2023-02-15T14:30:55;14.10;99.90
26278;DHT22;14000;52.056;8.510;2023-02-15T14:33:36;14.20;99.90
26278;DHT22;14000;52.056;8.510;2023-02-15T14:36:05;14.20;99.90
26278;DHT22;14000;52.056;8.510;2023-02-15T14:46:49;14.00;99.90
26278;DHT22;14000;52.056;8.510;2023-02-15T14:49:27;14.00;99.90
26278;DHT22;14000;52.056;8.510;2023-02-15T14:52:00;14.00;99.90
26278;DHT22;14000;52.056;8.510;2023-02-15T14:59:27;13.80;99.90
26278;DHT22;14000;52.056;8.510;2023-02-15T15:02:04;13.70;99.90
26278;DHT22;14000;52.056;8.510;2023-02-15T15:04:38;13.80;99.90
26278;DHT22;14000;52.056;8.510;2023-02-15T15:09:48;13.90;99.90
26278;DHT22;14000;52.056;8.510;2023-02-15T15:14:49;13.50;99.90
26278;DHT22;14000;52.056;8.510;2023-02-15T15:31:41;12.90;99.90
26278;DHT22;14000;52.056;8.510;2023-02-15T15:34:24;12.80;99.90
26278;DHT22;14000;52.056;8.510;2023-02-15T15:42:42;12.60;99.90
26278;DHT22;14000;52.056;8.510;2023-02-15T15:51:10;12.10;99.90
26278;DHT22;14000;52.056;8.510;2023-02-15T15:53:45;12.00;99.90
26278;DHT22;14000;52.056;8.510;2023-02-15T15:56:18;11.90;99.90
26278;DHT22;14000;52.056;8.510;2023-02-15T15:58:48;11.70;99.90
26278;DHT22;14000;52.056;8.510;2023-02-15T16:01:15;11.60;99.90
26278;DHT22;14000;52.056;8.510;2023-02-15T16:03:53;11.50;99.90
26278;DHT22;14000;52.056;8.510;2023-02-15T16:06:36;11.40;99.90
26278;DHT22;14000;52.056;8.510;2023-02-15T16:09:20;11.30;99.90
26278;DHT22;14000;52.056;8.510;2023-02-15T16:11:52;11.10;99.90
26278;DHT22;14000;52.056;8.510;2023-02-15T16:14:31;11.00;99.90
26278;DHT22;14000;52.056;8.510;2023-02-15T16:16:59;10.90;99.90
26278;DHT22;14000;52.056;8.510;2023-02-15T16:19:29;10.80;99.90
26278;DHT22;14000;52.056;8.510;2023-02-15T16:21:58;10.70;99.90
26278;DHT22;14000;52.056;8.510;2023-02-15T16:29:52;10.40;99.90
26278;DHT22;14000;52.056;8.510;2023-02-15T16:32:21;10.20;99.90
26278;DHT22;14000;52.056;8.510;2023-02-15T16:35:01;10.10;99.90
26278;DHT22;14000;52.056;8.510;2023-02-15T16:37:34;10.10;99.90
26278;DHT22;14000;52.056;8.510;2023-02-15T16:40:00;10.00;99.90
26278;DHT22;14000;52.056;8.510;2023-02-15T16:42:26;10.00;99.90
26278;DHT22;14000;52.056;8.510;2023-02-15T16:45:14;9.90;99.90
26278;DHT22;14000;52.056;8.510;2023-02-15T16:47:43;9.70;99.90
26278;DHT22;14000;52.056;8.510;2023-02-15T16:50:22;9.60;99.90
26278;DHT22;14000;52.056;8.510;2023-02-15T16:52:49;9.50;99.90
26278;DHT22;14000;52.056;8.510;2023-02-15T16:55:26;9.40;99.90
26278;DHT22;14000;52.056;8.510;2023-02-15T16:57:59;9.20;99.90
26278;DHT22;14000;52.056;8.510;2023-02-15T17:00:30;9.10;99.90
26278;DHT22;14000;52.056;8.510;2023-02-15T17:03:02;9.00;99.90
26278;DHT22;14000;52.056;8.510;2023-02-15T17:08:33;8.90;99.90
26278;DHT22;14000;52.056;8.510;2023-02-15T17:13:24;8.80;99.90
26278;DHT22;14000;52.056;8.510;2023-02-15T17:18:40;8.40;99.90
26278;DHT22;14000;52.056;8.510;2023-02-15T17:21:17;8.30;99.90
26278;DHT22;14000;52.056;8.510;2023-02-15T17:23:49;8.30;99.90
26278;DHT22;14000;52.056;8.510;2023-02-15T17:26:19;8.20;99.90
26278;DHT22;14000;52.056;8.510;2023-02-15T17:28:51;8.20;99.90
26278;DHT22;14000;52.056;8.510;2023-02-15T17:31:19;8.20;99.90
26278;DHT22;14000;52.056;8.510;2023-02-15T17:33:45;8.10;99.90
26278;DHT22;14000;52.056;8.510;2023-02-15T17:36:19;8.00;99.90
26278;DHT22;14000;52.056;8.510;2023-02-15T17:39:18;8.00;99.90
26278;DHT22;14000;52.056;8.510;2023-02-15T17:41:45;7.90;99.90
26278;DHT22;14000;52.056;8.510;2023-02-15T17:44:12;7.90;99.90
26278;DHT22;14000;52.056;8.510;2023-02-15T17:46:40;7.80;99.90
26278;DHT22;14000;52.056;8.510;2023-02-15T17:49:06;7.70;99.90
26278;DHT22;14000;52.056;8.510;2023-02-15T17:51:32;7.60;99.90
26278;DHT22;14000;52.056;8.510;2023-02-15T17:54:01;7.50;99.90
26278;DHT22;14000;52.056;8.510;2023-02-15T17:56:45;7.40;99.90
26278;DHT22;14000;52.056;8.510;2023-02-15T17:59:11;7.30;99.90
26278;DHT22;14000;52.056;8.510;2023-02-15T18:01:45;7.30;99.90
26278;DHT22;14000;52.056;8.510;2023-02-15T18:04:31;7.30;99.90
26278;DHT22;14000;52.056;8.510;2023-02-15T18:07:17;7.30;99.90
26278;DHT22;14000;52.056;8.510;2023-02-15T18:10:11;7.30;99.90
26278;DHT22;14000;52.056;8.510;2023-02-15T18:12:55;7.20;99.90
26278;DHT22;14000;52.056;8.510;2023-02-15T18:15:21;7.10;99.90
26278;DHT22;14000;52.056;8.510;2023-02-15T18:17:46;7.10;99.90
26278;DHT22;14000;52.056;8.510;2023-02-15T18:20:20;6.90;99.90
26278;DHT22;14000;52.056;8.510;2023-02-15T18:22:48;6.80;99.90
26278;DHT22;14000;52.056;8.510;2023-02-15T18:25:16;6.70;99.90
26278;DHT22;14000;52.056;8.510;2023-02-15T18:27:42;6.60;99.90
26278;DHT22;14000;52.056;8.510;2023-02-15T18:30:13;6.60;99.90
26278;DHT22;14000;52.056;8.510;2023-02-15T18:32:39;6.50;99.90
26278;DHT22;14000;52.056;8.510;2023-02-15T18:35:06;6.50;99.90
26278;DHT22;14000;52.056;8.510;2023-02-15T18:37:32;6.40;99.90
26278;DHT22;14000;52.056;8.510;2023-02-15T18:39:59;6.40;99.90
26278;DHT22;14000;52.056;8.510;2023-02-15T18:42:28;6.40;99.90
26278;DHT22;14000;52.056;8.510;2023-02-15T18:47:41;6.30;99.90
26278;DHT22;14000;52.056;8.510;2023-02-15T18:50:07;6.20;99.90
26278;DHT22;14000;52.056;8.510;2023-02-15T18:52:36;6.20;99.90
26278;DHT22;14000;52.056;8.510;2023-02-15T18:55:15;6.10;99.90
26278;DHT22;14000;52.056;8.510;2023-02-15T18:57:41;6.10;99.90
26278;DHT22;14000;52.056;8.510;2023-02-15T19:00:14;6.00;99.90
26278;DHT22;14000;52.056;8.510;2023-02-15T19:02:41;5.90;99.90
26278;DHT22;14000;52.056;8.510;2023-02-15T19:05:06;5.90;99.90
26278;DHT22;14000;52.056;8.510;2023-02-15T19:07:33;5.80;99.90
26278;DHT22;14000;52.056;8.510;2023-02-15T19:10:00;5.80;99.90
26278;DHT22;14000;52.056;8.510;2023-02-15T19:12:29;5.80;99.90
26278;DHT22;14000;52.056;8.510;2023-02-15T19:14:55;5.80;99.90
26278;DHT22;14000;52.056;8.510;2023-02-15T19:17:22;5.70;99.90
26278;DHT22;14000;52.056;8.510;2023-02-15T19:19:49;5.60;99.90
26278;DHT22;14000;52.056;8.510;2023-02-15T19:22:20;5.60;99.90
26278;DHT22;14000;52.056;8.510;2023-02-15T19:24:47;5.60;99.90